sensor_id;sensor_type;location;lat;lon;timestamp;temperature;humidity
23671;DHT22;12012;51.998;7.614;2022-12-13T00:01:39;-3.00;1.00
23671;DHT22;12012;51.998;7.614;2022-12-13T00:04:06;-3.00;1.00
23671;DHT22;12012;51.998;7.614;2022-12-13T00:06:33;-3.00;1.00
23671;DHT22;12012;51.998;7.614;2022-12-13T00:08:59;-2.90;1.00
23671;DHT22;12012;51.998;7.614;2022-12-13T00:11:25;-3.00;1.00
23671;DHT22;12012;51.998;7.614;2022-12-13T00:13:51;-3.00;1.00
23671;DHT22;12012;51.998;7.614;2022-12-13T00:16:20;-3.00;1.00
23671;DHT22;12012;51.998;7.614;2022-12-13T00:18:48;-3.10;1.00
23671;DHT22;12012;51.998;7.614;2022-12-13T00:21:15;-3.10;1.00
23671;DHT22;12012;51.998;7.614;2022-12-13T00:23:42;-3.10;1.00
23671;DHT22;12012;51.998;7.614;2022-12-13T00:26:11;-3.20;1.00
23671;DHT22;12012;51.998;7.614;2022-12-13T00:28:37;-3.20;1.00
23671;DHT22;12012;51.998;7.614;2022-12-13T00:31:03;-3.20;1.00
23671;DHT22;12012;51.998;7.614;2022-12-13T00:33:29;-3.20;1.00
23671;DHT22;12012;51.998;7.614;2022-12-13T00:35:55;-3.30;1.00
23671;DHT22;12012;51.998;7.614;2022-12-13T00:38:21;-3.40;1.00
23671;DHT22;12012;51.998;7.614;2022-12-13T00:40:47;-3.40;1.00
23671;DHT22;12012;51.998;7.614;2022-12-13T00:43:13;-3.40;1.00
23671;DHT22;12012;51.998;7.614;2022-12-13T00:45:39;-3.40;1.00
23671;DHT22;12012;51.998;7.614;2022-12-13T00:48:05;-3.40;1.00
23671;DHT22;12012;51.998;7.614;2022-12-13T00:50:32;-3.50;1.00
23671;DHT22;12012;51.998;7.614;2022-12-13T00:52:58;-3.50;1.00
23671;DHT22;12012;51.998;7.614;2022-12-13T00:55:24;-3.50;1.00
23671;DHT22;12012;51.998;7.614;2022-12-13T00:57:50;-3.50;1.00
23671;DHT22;12012;51.998;7.614;2022-12-13T01:00:16;-3.60;1.00
23671;DHT22;12012;51.998;7.614;2022-12-13T01:02:42;-3.60;1.00
23671;DHT22;12012;51.998;7.614;2022-12-13T01:05:08;-3.60;1.00
23671;DHT22;12012;51.998;7.614;2022-12-13T01:07:35;-3.60;1.00
23671;DHT22;12012;51.998;7.614;2022-12-13T01:10:01;-3.60;1.00
23671;DHT22;12012;51.998;7.614;2022-12-13T01:12:26;-3.70;1.00
23671;DHT22;12012;51.998;7.614;2022-12-13T01:14:52;-3.70;1.00
23671;DHT22;12012;51.998;7.614;2022-12-13T01:17:17;-3.70;1.00
23671;DHT22;12012;51.998;7.614;2022-12-13T01:19:43;-3.70;1.00
23671;DHT22;12012;51.998;7.614;2022-12-13T01:22:09;-3.70;1.00
23671;DHT22;12012;51.998;7.614;2022-12-13T01:24:36;-3.70;1.00
23671;DHT22;12012;51.998;7.614;2022-12-13T01:27:02;-3.70;1.00
23671;DHT22;12012;51.998;7.614;2022-12-13T01:29:27;-3.60;1.00
23671;DHT22;12012;51.998;7.614;2022-12-13T01:31:53;-3.60;1.00
23671;DHT22;12012;51.998;7.614;2022-12-13T01:34:20;-3.60;1.00
23671;DHT22;12012;51.998;7.614;2022-12-13T01:36:47;-3.60;1.00
23671;DHT22;12012;51.998;7.614;2022-12-13T01:39:16;-3.60;1.00
23671;DHT22;12012;51.998;7.614;2022-12-13T01:41:43;-3.60;1.00
23671;DHT22;12012;51.998;7.614;2022-12-13T01:47:13;-3.60;1.00
23671;DHT22;12012;51.998;7.614;2022-12-13T01:49:42;-3.60;1.00
23671;DHT22;12012;51.998;7.614;2022-12-13T01:52:11;-3.70;1.00
23671;DHT22;12012;51.998;7.614;2022-12-13T01:54:45;-3.70;1.00
23671;DHT22;12012;51.998;7.614;2022-12-13T01:57:12;-3.70;1.00
23671;DHT22;12012;51.998;7.614;2022-12-13T01:59:40;-3.70;1.00
23671;DHT22;12012;51.998;7.614;2022-12-13T02:02:08;-3.70;1.00
23671;DHT22;12012;51.998;7.614;2022-12-13T02:07:37;-3.80;1.00
23671;DHT22;12012;51.998;7.614;2022-12-13T02:10:05;-3.80;1.00
23671;DHT22;12012;51.998;7.614;2022-12-13T02:12:33;-3.80;1.00
23671;DHT22;12012;51.998;7.614;2022-12-13T02:15:04;-3.80;1.00
23671;DHT22;12012;51.998;7.614;2022-12-13T02:20:44;-3.80;1.00
23671;DHT22;12012;51.998;7.614;2022-12-13T02:34:25;-3.70;1.00
23671;DHT22;12012;51.998;7.614;2022-12-13T02:37:03;-3.70;1.00
23671;DHT22;12012;51.998;7.614;2022-12-13T02:39:33;-3.80;1.00
23671;DHT22;12012;51.998;7.614;2022-12-13T02:42:29;-3.80;1.00
23671;DHT22;12012;51.998;7.614;2022-12-13T02:44:53;-3.80;1.00
23671;DHT22;12012;51.998;7.614;2022-12-13T02:47:22;-3.80;1.00
23671;DHT22;12012;51.998;7.614;2022-12-13T02:49:51;-3.80;1.00
23671;DHT22;12012;51.998;7.614;2022-12-13T02:52:20;-3.80;1.00
23671;DHT22;12012;51.998;7.614;2022-12-13T02:54:47;-3.80;1.00
23671;DHT22;12012;51.998;7.614;2022-12-13T02:57:36;-3.80;1.20
23671;DHT22;12012;51.998;7.614;2022-12-13T03:11:46;-3.90;4.70
23671;DHT22;12012;51.998;7.614;2022-12-13T03:14:36;-3.90;3.20
23671;DHT22;12012;51.998;7.614;2022-12-13T03:17:05;-3.90;1.00
23671;DHT22;12012;51.998;7.614;2022-12-13T03:19:31;-3.90;1.00
23671;DHT22;12012;51.998;7.614;2022-12-13T03:21:57;-3.90;1.00
23671;DHT22;12012;51.998;7.614;2022-12-13T03:24:22;-3.90;1.00
23671;DHT22;12012;51.998;7.614;2022-12-13T03:26:49;-3.90;1.00
23671;DHT22;12012;51.998;7.614;2022-12-13T03:29:15;-3.90;1.00
23671;DHT22;12012;51.998;7.614;2022-12-13T03:31:41;-3.90;1.00
23671;DHT22;12012;51.998;7.614;2022-12-13T03:34:06;-3.90;1.00
23671;DHT22;12012;51.998;7.614;2022-12-13T03:36:32;-4.00;1.00
23671;DHT22;12012;51.998;7.614;2022-12-13T03:38:58;-4.10;1.00
23671;DHT22;12012;51.998;7.614;2022-12-13T03:41:25;-4.10;1.00
23671;DHT22;12012;51.998;7.614;2022-12-13T03:43:59;-4.20;1.00
23671;DHT22;12012;51.998;7.614;2022-12-13T03:46:27;-4.20;1.00
23671;DHT22;12012;51.998;7.614;2022-12-13T03:48:52;-4.20;1.00
23671;DHT22;12012;51.998;7.614;2022-12-13T03:51:18;-4.20;1.00
23671;DHT22;12012;51.998;7.614;2022-12-13T03:53:44;-4.20;1.00
23671;DHT22;12012;51.998;7.614;2022-12-13T03:56:09;-4.20;1.00
23671;DHT22;12012;51.998;7.614;2022-12-13T03:58:35;-4.20;1.00
23671;DHT22;12012;51.998;7.614;2022-12-13T04:01:01;-4.20;1.00
23671;DHT22;12012;51.998;7.614;2022-12-13T04:03:26;-4.30;1.00
23671;DHT22;12012;51.998;7.614;2022-12-13T04:05:52;-4.30;1.00
23671;DHT22;12012;51.998;7.614;2022-12-13T04:08:17;-4.30;1.00
23671;DHT22;12012;51.998;7.614;2022-12-13T04:10:43;-4.30;1.00
23671;DHT22;12012;51.998;7.614;2022-12-13T04:13:09;-4.40;1.00
23671;DHT22;12012;51.998;7.614;2022-12-13T04:15:54;-4.30;1.00
23671;DHT22;12012;51.998;7.614;2022-12-13T04:18:20;-4.30;1.00
23671;DHT22;12012;51.998;7.614;2022-12-13T04:20:46;-4.30;1.00
23671;DHT22;12012;51.998;7.614;2022-12-13T04:23:11;-4.30;1.00
23671;DHT22;12012;51.998;7.614;2022-12-13T04:25:38;-4.30;1.00
23671;DHT22;12012;51.998;7.614;2022-12-13T04:28:03;-4.30;1.00
23671;DHT22;12012;51.998;7.614;2022-12-13T04:30:29;-4.30;1.00
23671;DHT22;12012;51.998;7.614;2022-12-13T04:32:54;-4.30;1.00
23671;DHT22;12012;51.998;7.614;2022-12-13T04:35:21;-4.30;1.00
23671;DHT22;12012;51.998;7.614;2022-12-13T04:37:47;-4.40;1.00
23671;DHT22;12012;51.998;7.614;2022-12-13T04:40:12;-4.40;1.00
23671;DHT22;12012;51.998;7.614;2022-12-13T04:42:38;-4.40;1.00
23671;DHT22;12012;51.998;7.614;2022-12-13T04:45:04;-4.40;1.00
23671;DHT22;12012;51.998;7.614;2022-12-13T04:47:30;-4.40;1.00
23671;DHT22;12012;51.998;7.614;2022-12-13T04:49:55;-4.50;1.00
23671;DHT22;12012;51.998;7.614;2022-12-13T04:52:21;-4.50;1.00
23671;DHT22;12012;51.998;7.614;2022-12-13T04:54:47;-4.50;1.00
23671;DHT22;12012;51.998;7.614;2022-12-13T04:57:12;-4.50;1.00
23671;DHT22;12012;51.998;7.614;2022-12-13T04:59:38;-4.50;1.00
23671;DHT22;12012;51.998;7.614;2022-12-13T05:02:05;-4.50;1.00
23671;DHT22;12012;51.998;7.614;2022-12-13T05:04:30;-4.50;1.00
23671;DHT22;12012;51.998;7.614;2022-12-13T05:06:56;-4.60;1.00
23671;DHT22;12012;51.998;7.614;2022-12-13T05:09:22;-4.60;1.00
23671;DHT22;12012;51.998;7.614;2022-12-13T05:11:48;-4.60;1.00
23671;DHT22;12012;51.998;7.614;2022-12-13T05:14:14;-4.60;1.00
23671;DHT22;12012;51.998;7.614;2022-12-13T05:16:39;-4.60;1.00
23671;DHT22;12012;51.998;7.614;2022-12-13T05:19:05;-4.60;1.00
23671;DHT22;12012;51.998;7.614;2022-12-13T05:21:31;-4.60;1.00
23671;DHT22;12012;51.998;7.614;2022-12-13T05:24:02;-4.60;1.00
23671;DHT22;12012;51.998;7.614;2022-12-13T05:26:28;-4.60;1.00
23671;DHT22;12012;51.998;7.614;2022-12-13T05:28:55;-4.60;1.00
23671;DHT22;12012;51.998;7.614;2022-12-13T05:31:21;-4.60;1.00
23671;DHT22;12012;51.998;7.614;2022-12-13T05:33:46;-4.60;1.00
23671;DHT22;12012;51.998;7.614;2022-12-13T05:36:12;-4.50;1.00
23671;DHT22;12012;51.998;7.614;2022-12-13T05:38:37;-4.50;1.00
23671;DHT22;12012;51.998;7.614;2022-12-13T05:41:03;-4.50;1.00
23671;DHT22;12012;51.998;7.614;2022-12-13T05:43:29;-4.40;1.00
23671;DHT22;12012;51.998;7.614;2022-12-13T05:45:54;-4.40;1.00
23671;DHT22;12012;51.998;7.614;2022-12-13T05:48:20;-4.40;1.00
23671;DHT22;12012;51.998;7.614;2022-12-13T05:50:46;-4.40;1.00
23671;DHT22;12012;51.998;7.614;2022-12-13T05:53:11;-4.30;1.00
23671;DHT22;12012;51.998;7.614;2022-12-13T05:55:37;-4.30;1.00
23671;DHT22;12012;51.998;7.614;2022-12-13T05:58:03;-4.20;1.00
23671;DHT22;12012;51.998;7.614;2022-12-13T06:00:28;-4.20;1.00
23671;DHT22;12012;51.998;7.614;2022-12-13T06:02:55;-4.20;1.00
23671;DHT22;12012;51.998;7.614;2022-12-13T06:05:20;-4.20;1.00
23671;DHT22;12012;51.998;7.614;2022-12-13T06:07:46;-4.20;1.00
23671;DHT22;12012;51.998;7.614;2022-12-13T06:10:12;-4.20;1.00
23671;DHT22;12012;51.998;7.614;2022-12-13T06:12:38;-4.20;1.00
23671;DHT22;12012;51.998;7.614;2022-12-13T06:15:05;-4.20;1.00
23671;DHT22;12012;51.998;7.614;2022-12-13T06:17:35;-4.20;1.00
23671;DHT22;12012;51.998;7.614;2022-12-13T06:20:01;-4.20;1.00
23671;DHT22;12012;51.998;7.614;2022-12-13T06:22:27;-4.20;1.00
23671;DHT22;12012;51.998;7.614;2022-12-13T06:24:53;-4.20;1.00
23671;DHT22;12012;51.998;7.614;2022-12-13T06:27:19;-4.20;1.00
23671;DHT22;12012;51.998;7.614;2022-12-13T06:29:45;-4.20;1.00
23671;DHT22;12012;51.998;7.614;2022-12-13T06:32:10;-4.20;1.00
23671;DHT22;12012;51.998;7.614;2022-12-13T06:34:36;-4.20;1.00
23671;DHT22;12012;51.998;7.614;2022-12-13T06:37:04;-4.30;1.00
23671;DHT22;12012;51.998;7.614;2022-12-13T06:39:31;-4.30;1.00
23671;DHT22;12012;51.998;7.614;2022-12-13T06:41:57;-4.30;1.00
23671;DHT22;12012;51.998;7.614;2022-12-13T06:44:23;-4.40;1.00
23671;DHT22;12012;51.998;7.614;2022-12-13T06:46:48;-4.40;1.00
23671;DHT22;12012;51.998;7.614;2022-12-13T06:49:14;-4.40;1.00
23671;DHT22;12012;51.998;7.614;2022-12-13T06:51:39;-4.40;1.00
23671;DHT22;12012;51.998;7.614;2022-12-13T06:54:05;-4.50;1.00
23671;DHT22;12012;51.998;7.614;2022-12-13T06:56:30;-4.50;1.00
23671;DHT22;12012;51.998;7.614;2022-12-13T06:58:57;-4.60;1.00
23671;DHT22;12012;51.998;7.614;2022-12-13T07:01:23;-4.60;1.00
23671;DHT22;12012;51.998;7.614;2022-12-13T07:03:49;-4.60;1.00
23671;DHT22;12012;51.998;7.614;2022-12-13T07:06:20;-4.60;1.00
23671;DHT22;12012;51.998;7.614;2022-12-13T07:08:54;-4.60;1.00
23671;DHT22;12012;51.998;7.614;2022-12-13T07:11:25;-4.60;1.00
23671;DHT22;12012;51.998;7.614;2022-12-13T07:13:52;-4.60;1.00
23671;DHT22;12012;51.998;7.614;2022-12-13T07:16:18;-4.60;1.00
23671;DHT22;12012;51.998;7.614;2022-12-13T07:18:44;-4.60;1.00
23671;DHT22;12012;51.998;7.614;2022-12-13T07:21:12;-4.60;1.00
23671;DHT22;12012;51.998;7.614;2022-12-13T07:23:38;-4.70;1.00
23671;DHT22;12012;51.998;7.614;2022-12-13T07:26:04;-4.70;1.00
23671;DHT22;12012;51.998;7.614;2022-12-13T07:28:35;-4.70;1.00
23671;DHT22;12012;51.998;7.614;2022-12-13T07:31:08;-4.70;1.00
23671;DHT22;12012;51.998;7.614;2022-12-13T07:33:34;-4.70;1.00
23671;DHT22;12012;51.998;7.614;2022-12-13T07:38:34;-4.70;1.00
23671;DHT22;12012;51.998;7.614;2022-12-13T07:41:00;-4.70;1.00
23671;DHT22;12012;51.998;7.614;2022-12-13T07:43:25;-4.70;1.00
23671;DHT22;12012;51.998;7.614;2022-12-13T07:45:51;-4.70;1.00
23671;DHT22;12012;51.998;7.614;2022-12-13T07:48:17;-4.70;1.00
23671;DHT22;12012;51.998;7.614;2022-12-13T07:50:43;-4.70;1.00
23671;DHT22;12012;51.998;7.614;2022-12-13T07:53:09;-4.70;1.00
23671;DHT22;12012;51.998;7.614;2022-12-13T07:55:35;-4.70;1.00
23671;DHT22;12012;51.998;7.614;2022-12-13T07:58:06;-4.70;1.00
23671;DHT22;12012;51.998;7.614;2022-12-13T08:00:32;-4.70;1.00
23671;DHT22;12012;51.998;7.614;2022-12-13T08:02:57;-4.70;1.00
23671;DHT22;12012;51.998;7.614;2022-12-13T08:05:24;-4.70;1.00
23671;DHT22;12012;51.998;7.614;2022-12-13T08:07:49;-4.70;1.00
23671;DHT22;12012;51.998;7.614;2022-12-13T08:10:15;-4.70;1.00
23671;DHT22;12012;51.998;7.614;2022-12-13T08:12:40;-4.70;1.00
23671;DHT22;12012;51.998;7.614;2022-12-13T08:15:06;-4.70;1.00
23671;DHT22;12012;51.998;7.614;2022-12-13T08:17:32;-4.60;1.00
23671;DHT22;12012;51.998;7.614;2022-12-13T08:19:58;-4.60;1.00
23671;DHT22;12012;51.998;7.614;2022-12-13T08:22:24;-4.50;1.00
23671;DHT22;12012;51.998;7.614;2022-12-13T08:24:49;-4.50;1.00
23671;DHT22;12012;51.998;7.614;2022-12-13T08:27:15;-4.40;1.00
23671;DHT22;12012;51.998;7.614;2022-12-13T08:29:40;-4.30;1.00
23671;DHT22;12012;51.998;7.614;2022-12-13T08:32:08;-4.30;1.00
23671;DHT22;12012;51.998;7.614;2022-12-13T08:34:34;-4.20;1.00
23671;DHT22;12012;51.998;7.614;2022-12-13T08:37:00;-4.20;1.00
23671;DHT22;12012;51.998;7.614;2022-12-13T08:39:25;-4.10;1.00
23671;DHT22;12012;51.998;7.614;2022-12-13T08:41:51;-4.10;1.00
23671;DHT22;12012;51.998;7.614;2022-12-13T08:44:17;-4.10;1.00
23671;DHT22;12012;51.998;7.614;2022-12-13T08:46:42;-4.10;1.00
23671;DHT22;12012;51.998;7.614;2022-12-13T08:49:10;-4.10;1.00
23671;DHT22;12012;51.998;7.614;2022-12-13T08:51:35;-4.10;1.00
23671;DHT22;12012;51.998;7.614;2022-12-13T08:54:01;-4.00;1.00
23671;DHT22;12012;51.998;7.614;2022-12-13T08:56:26;-4.00;1.00
23671;DHT22;12012;51.998;7.614;2022-12-13T08:58:52;-4.00;1.00
23671;DHT22;12012;51.998;7.614;2022-12-13T09:01:18;-3.90;1.00
23671;DHT22;12012;51.998;7.614;2022-12-13T09:03:43;-3.90;1.00
23671;DHT22;12012;51.998;7.614;2022-12-13T09:06:11;-3.80;1.00
23671;DHT22;12012;51.998;7.614;2022-12-13T09:08:38;-3.80;1.00
23671;DHT22;12012;51.998;7.614;2022-12-13T09:11:04;-3.80;1.00
23671;DHT22;12012;51.998;7.614;2022-12-13T09:13:32;-3.70;1.00
23671;DHT22;12012;51.998;7.614;2022-12-13T09:16:18;-3.60;1.00
23671;DHT22;12012;51.998;7.614;2022-12-13T09:18:45;-3.60;1.00
23671;DHT22;12012;51.998;7.614;2022-12-13T09:21:13;-3.50;1.00
23671;DHT22;12012;51.998;7.614;2022-12-13T09:23:39;-3.40;1.00
23671;DHT22;12012;51.998;7.614;2022-12-13T09:26:10;-3.30;1.00
23671;DHT22;12012;51.998;7.614;2022-12-13T09:28:36;-3.30;1.00
23671;DHT22;12012;51.998;7.614;2022-12-13T09:31:20;-3.30;1.00
23671;DHT22;12012;51.998;7.614;2022-12-13T09:33:46;-3.20;1.00
23671;DHT22;12012;51.998;7.614;2022-12-13T09:36:14;-3.20;1.00
23671;DHT22;12012;51.998;7.614;2022-12-13T09:38:40;-3.10;1.00
23671;DHT22;12012;51.998;7.614;2022-12-13T09:41:17;-3.00;1.00
23671;DHT22;12012;51.998;7.614;2022-12-13T09:43:44;-2.90;1.00
23671;DHT22;12012;51.998;7.614;2022-12-13T09:46:29;-2.80;1.00
23671;DHT22;12012;51.998;7.614;2022-12-13T09:48:57;-2.70;1.00
23671;DHT22;12012;51.998;7.614;2022-12-13T09:51:24;-2.40;1.00
23671;DHT22;12012;51.998;7.614;2022-12-13T09:56:23;-1.70;1.00
23671;DHT22;12012;51.998;7.614;2022-12-13T09:58:50;-1.40;99.90
23671;DHT22;12012;51.998;7.614;2022-12-13T10:01:17;-1.10;99.90
23671;DHT22;12012;51.998;7.614;2022-12-13T10:03:47;-0.80;99.90
23671;DHT22;12012;51.998;7.614;2022-12-13T10:06:15;-0.60;99.90
23671;DHT22;12012;51.998;7.614;2022-12-13T10:08:44;-0.30;99.90
23671;DHT22;12012;51.998;7.614;2022-12-13T10:11:16;0.00;99.90
23671;DHT22;12012;51.998;7.614;2022-12-13T10:14:03;0.30;43.70
23671;DHT22;12012;51.998;7.614;2022-12-13T10:21:40;1.50;1.00
23671;DHT22;12012;51.998;7.614;2022-12-13T10:26:39;2.30;1.00
23671;DHT22;12012;51.998;7.614;2022-12-13T10:29:05;2.70;1.00
23671;DHT22;12012;51.998;7.614;2022-12-13T10:31:46;3.10;1.00
23671;DHT22;12012;51.998;7.614;2022-12-13T10:34:23;3.60;99.90
23671;DHT22;12012;51.998;7.614;2022-12-13T10:36:50;3.90;99.90
23671;DHT22;12012;51.998;7.614;2022-12-13T10:39:39;4.30;66.80
23671;DHT22;12012;51.998;7.614;2022-12-13T10:42:13;4.70;1.00
23671;DHT22;12012;51.998;7.614;2022-12-13T10:44:38;5.00;99.90
23671;DHT22;12012;51.998;7.614;2022-12-13T10:47:21;5.30;1.00
23671;DHT22;12012;51.998;7.614;2022-12-13T10:49:57;5.70;1.00
23671;DHT22;12012;51.998;7.614;2022-12-13T10:54:52;6.60;1.00
23671;DHT22;12012;51.998;7.614;2022-12-13T10:57:18;7.10;99.90
23671;DHT22;12012;51.998;7.614;2022-12-13T10:59:47;7.60;55.80
23671;DHT22;12012;51.998;7.614;2022-12-13T11:04:58;8.80;1.00
23671;DHT22;12012;51.998;7.614;2022-12-13T11:07:30;9.80;99.90
23671;DHT22;12012;51.998;7.614;2022-12-13T11:09:57;11.60;99.90
23671;DHT22;12012;51.998;7.614;2022-12-13T11:12:25;12.80;99.90
23671;DHT22;12012;51.998;7.614;2022-12-13T11:17:21;14.20;99.60
23671;DHT22;12012;51.998;7.614;2022-12-13T11:19:51;14.70;88.30
23671;DHT22;12012;51.998;7.614;2022-12-13T11:22:27;15.10;69.10
23671;DHT22;12012;51.998;7.614;2022-12-13T11:25:02;15.50;52.70
23671;DHT22;12012;51.998;7.614;2022-12-13T11:36:14;17.00;5.00
23671;DHT22;12012;51.998;7.614;2022-12-13T11:41:28;17.10;1.00
23671;DHT22;12012;51.998;7.614;2022-12-13T11:43:57;17.00;1.00
23671;DHT22;12012;51.998;7.614;2022-12-13T11:46:41;17.00;1.00
23671;DHT22;12012;51.998;7.614;2022-12-13T11:52:01;17.50;1.00
23671;DHT22;12012;51.998;7.614;2022-12-13T11:57:14;17.80;1.00
23671;DHT22;12012;51.998;7.614;2022-12-13T11:59:47;17.80;1.00
23671;DHT22;12012;51.998;7.614;2022-12-13T12:02:27;17.70;1.00
23671;DHT22;12012;51.998;7.614;2022-12-13T12:04:54;17.80;1.00
23671;DHT22;12012;51.998;7.614;2022-12-13T12:07:43;17.90;1.00
23671;DHT22;12012;51.998;7.614;2022-12-13T12:10:29;17.70;1.00
23671;DHT22;12012;51.998;7.614;2022-12-13T12:13:06;17.60;1.00
23671;DHT22;12012;51.998;7.614;2022-12-13T12:15:40;17.80;1.00
23671;DHT22;12012;51.998;7.614;2022-12-13T12:18:15;17.80;1.00
23671;DHT22;12012;51.998;7.614;2022-12-13T12:21:09;18.00;1.00
23671;DHT22;12012;51.998;7.614;2022-12-13T12:26:16;18.30;1.00
23671;DHT22;12012;51.998;7.614;2022-12-13T12:31:43;18.40;1.00
23671;DHT22;12012;51.998;7.614;2022-12-13T12:37:07;18.40;1.00
23671;DHT22;12012;51.998;7.614;2022-12-13T12:42:54;18.60;1.00
23671;DHT22;12012;51.998;7.614;2022-12-13T12:45:40;18.70;1.00
23671;DHT22;12012;51.998;7.614;2022-12-13T12:51:09;18.60;1.00
23671;DHT22;12012;51.998;7.614;2022-12-13T12:54:17;18.50;1.00
23671;DHT22;12012;51.998;7.614;2022-12-13T12:59:34;18.50;1.00
23671;DHT22;12012;51.998;7.614;2022-12-13T13:02:21;18.60;1.00
23671;DHT22;12012;51.998;7.614;2022-12-13T13:04:53;18.60;1.00
23671;DHT22;12012;51.998;7.614;2022-12-13T13:07:29;18.50;1.00
23671;DHT22;12012;51.998;7.614;2022-12-13T13:09:56;18.30;1.00
23671;DHT22;12012;51.998;7.614;2022-12-13T13:12:24;17.90;1.00
23671;DHT22;12012;51.998;7.614;2022-12-13T13:14:51;17.00;1.00
23671;DHT22;12012;51.998;7.614;2022-12-13T13:20:10;14.30;1.00
23671;DHT22;12012;51.998;7.614;2022-12-13T13:22:37;13.40;1.00
23671;DHT22;12012;51.998;7.614;2022-12-13T13:27:42;11.40;1.00
23671;DHT22;12012;51.998;7.614;2022-12-13T13:30:21;10.60;1.00
23671;DHT22;12012;51.998;7.614;2022-12-13T13:32:49;9.90;1.00
23671;DHT22;12012;51.998;7.614;2022-12-13T13:38:04;8.30;1.00
23671;DHT22;12012;51.998;7.614;2022-12-13T13:40:49;7.60;1.00
23671;DHT22;12012;51.998;7.614;2022-12-13T13:43:15;6.90;1.00
23671;DHT22;12012;51.998;7.614;2022-12-13T13:45:56;6.30;1.00
23671;DHT22;12012;51.998;7.614;2022-12-13T14:16:39;2.20;73.60
23671;DHT22;12012;51.998;7.614;2022-12-13T14:19:31;2.00;96.20
23671;DHT22;12012;51.998;7.614;2022-12-13T14:30:17;1.40;99.90
23671;DHT22;12012;51.998;7.614;2022-12-13T14:32:45;1.20;99.90
23671;DHT22;12012;51.998;7.614;2022-12-13T14:38:00;1.00;99.90
23671;DHT22;12012;51.998;7.614;2022-12-13T14:40:33;0.80;99.90
23671;DHT22;12012;51.998;7.614;2022-12-13T14:43:00;0.70;99.90
23671;DHT22;12012;51.998;7.614;2022-12-13T14:45:31;0.60;99.90
23671;DHT22;12012;51.998;7.614;2022-12-13T14:48:09;0.50;99.90
23671;DHT22;12012;51.998;7.614;2022-12-13T14:50:37;0.30;99.90
23671;DHT22;12012;51.998;7.614;2022-12-13T14:53:04;0.20;99.90
23671;DHT22;12012;51.998;7.614;2022-12-13T14:57:58;0.00;99.90
23671;DHT22;12012;51.998;7.614;2022-12-13T15:00:34;-0.10;99.90
23671;DHT22;12012;51.998;7.614;2022-12-13T15:03:02;-0.10;1.00
23671;DHT22;12012;51.998;7.614;2022-12-13T15:05:42;-0.20;1.00
23671;DHT22;12012;51.998;7.614;2022-12-13T15:08:09;-0.30;1.00
23671;DHT22;12012;51.998;7.614;2022-12-13T15:13:01;-0.50;1.00
23671;DHT22;12012;51.998;7.614;2022-12-13T15:15:35;-0.50;1.00
23671;DHT22;12012;51.998;7.614;2022-12-13T15:18:22;-0.60;1.00
23671;DHT22;12012;51.998;7.614;2022-12-13T15:20:50;-0.70;1.00
23671;DHT22;12012;51.998;7.614;2022-12-13T15:23:33;-0.80;1.00
23671;DHT22;12012;51.998;7.614;2022-12-13T15:28:45;-0.90;1.00
23671;DHT22;12012;51.998;7.614;2022-12-13T15:31:12;-0.90;1.00
23671;DHT22;12012;51.998;7.614;2022-12-13T15:33:38;-1.00;1.00
23671;DHT22;12012;51.998;7.614;2022-12-13T15:38:34;-1.10;1.00
23671;DHT22;12012;51.998;7.614;2022-12-13T15:41:02;-1.20;1.00
23671;DHT22;12012;51.998;7.614;2022-12-13T15:43:40;-1.20;1.00
23671;DHT22;12012;51.998;7.614;2022-12-13T15:46:08;-1.30;1.00
23671;DHT22;12012;51.998;7.614;2022-12-13T15:48:38;-1.40;1.00
23671;DHT22;12012;51.998;7.614;2022-12-13T15:51:08;-1.40;1.00
23671;DHT22;12012;51.998;7.614;2022-12-13T15:53:34;-1.40;1.00
23671;DHT22;12012;51.998;7.614;2022-12-13T15:56:00;-1.50;45.90
23671;DHT22;12012;51.998;7.614;2022-12-13T15:58:26;-1.50;99.90
23671;DHT22;12012;51.998;7.614;2022-12-13T16:00:54;-1.50;99.90
23671;DHT22;12012;51.998;7.614;2022-12-13T16:03:22;-1.60;99.90
23671;DHT22;12012;51.998;7.614;2022-12-13T16:05:51;-1.60;99.90
23671;DHT22;12012;51.998;7.614;2022-12-13T16:08:26;-1.70;99.90
23671;DHT22;12012;51.998;7.614;2022-12-13T16:10:53;-1.70;99.90
23671;DHT22;12012;51.998;7.614;2022-12-13T16:13:24;-1.70;99.90
23671;DHT22;12012;51.998;7.614;2022-12-13T16:15:52;-1.70;99.90
23671;DHT22;12012;51.998;7.614;2022-12-13T16:18:24;-1.80;99.90
23671;DHT22;12012;51.998;7.614;2022-12-13T16:20:52;-1.80;99.90
23671;DHT22;12012;51.998;7.614;2022-12-13T16:23:17;-1.80;99.90
23671;DHT22;12012;51.998;7.614;2022-12-13T16:25:43;-1.90;99.90
23671;DHT22;12012;51.998;7.614;2022-12-13T16:28:13;-1.90;99.90
23671;DHT22;12012;51.998;7.614;2022-12-13T16:33:17;-1.90;99.90
23671;DHT22;12012;51.998;7.614;2022-12-13T16:35:42;-1.90;99.90
23671;DHT22;12012;51.998;7.614;2022-12-13T16:38:09;-1.90;99.90
23671;DHT22;12012;51.998;7.614;2022-12-13T16:40:35;-1.90;99.90
23671;DHT22;12012;51.998;7.614;2022-12-13T16:43:03;-1.90;99.90
23671;DHT22;12012;51.998;7.614;2022-12-13T16:45:38;-1.90;99.90
23671;DHT22;12012;51.998;7.614;2022-12-13T16:48:04;-1.90;99.90
23671;DHT22;12012;51.998;7.614;2022-12-13T16:50:31;-1.90;99.90
23671;DHT22;12012;51.998;7.614;2022-12-13T16:52:57;-1.90;99.90
23671;DHT22;12012;51.998;7.614;2022-12-13T16:55:23;-2.00;99.90
23671;DHT22;12012;51.998;7.614;2022-12-13T16:58:00;-1.90;99.90
23671;DHT22;12012;51.998;7.614;2022-12-13T17:00:27;-2.00;99.90
23671;DHT22;12012;51.998;7.614;2022-12-13T17:02:54;-2.00;99.90
23671;DHT22;12012;51.998;7.614;2022-12-13T17:05:20;-2.00;1.00
23671;DHT22;12012;51.998;7.614;2022-12-13T17:07:47;-2.00;99.90
23671;DHT22;12012;51.998;7.614;2022-12-13T17:10:13;-2.00;99.90
23671;DHT22;12012;51.998;7.614;2022-12-13T17:12:38;-2.00;99.90
23671;DHT22;12012;51.998;7.614;2022-12-13T17:15:05;-2.00;1.00
23671;DHT22;12012;51.998;7.614;2022-12-13T17:17:31;-2.10;99.90
23671;DHT22;12012;51.998;7.614;2022-12-13T17:19:56;-2.10;1.00
23671;DHT22;12012;51.998;7.614;2022-12-13T17:22:22;-2.10;1.00
23671;DHT22;12012;51.998;7.614;2022-12-13T17:24:48;-2.10;99.90
23671;DHT22;12012;51.998;7.614;2022-12-13T17:27:14;-2.10;1.00
23671;DHT22;12012;51.998;7.614;2022-12-13T17:29:40;-2.10;1.80
23671;DHT22;12012;51.998;7.614;2022-12-13T17:32:05;-2.10;1.00
23671;DHT22;12012;51.998;7.614;2022-12-13T17:34:31;-2.10;40.70
23671;DHT22;12012;51.998;7.614;2022-12-13T17:36:57;-2.10;99.90
23671;DHT22;12012;51.998;7.614;2022-12-13T17:39:22;-2.10;14.60
23671;DHT22;12012;51.998;7.614;2022-12-13T17:41:49;-2.10;1.00
23671;DHT22;12012;51.998;7.614;2022-12-13T17:44:15;-2.10;1.00
23671;DHT22;12012;51.998;7.614;2022-12-13T17:46:40;-2.20;81.60
23671;DHT22;12012;51.998;7.614;2022-12-13T17:49:06;-2.10;1.00
23671;DHT22;12012;51.998;7.614;2022-12-13T17:51:31;-2.20;25.00
23671;DHT22;12012;51.998;7.614;2022-12-13T17:53:57;-2.20;1.00
23671;DHT22;12012;51.998;7.614;2022-12-13T17:56:23;-2.20;1.00
23671;DHT22;12012;51.998;7.614;2022-12-13T17:58:48;-2.20;1.00
23671;DHT22;12012;51.998;7.614;2022-12-13T18:01:19;-2.20;1.00
23671;DHT22;12012;51.998;7.614;2022-12-13T18:03:45;-2.20;1.00
23671;DHT22;12012;51.998;7.614;2022-12-13T18:06:13;-2.30;33.00
23671;DHT22;12012;51.998;7.614;2022-12-13T18:08:40;-2.20;1.00
23671;DHT22;12012;51.998;7.614;2022-12-13T18:11:07;-2.20;99.90
23671;DHT22;12012;51.998;7.614;2022-12-13T18:13:33;-2.20;25.60
23671;DHT22;12012;51.998;7.614;2022-12-13T18:16:03;-2.20;14.50
23671;DHT22;12012;51.998;7.614;2022-12-13T18:18:29;-2.20;99.90
23671;DHT22;12012;51.998;7.614;2022-12-13T18:20:54;-2.20;99.90